createdAt,value
2023-03-27T00:01:15.890Z,91719.69
2023-03-27T00:03:42.936Z,91726.91
2023-03-27T00:06:16.190Z,91729.47
2023-03-27T00:08:51.049Z,91737.69
2023-03-27T00:11:18.765Z,91732.41
2023-03-27T00:13:49.497Z,91731.88
2023-03-27T00:16:20.090Z,91739.72
2023-03-27T00:18:47.019Z,91746.66
2023-03-27T00:21:13.529Z,91744.06
2023-03-27T00:23:40.490Z,91747.31
2023-03-27T00:26:07.282Z,91756.59
2023-03-27T00:28:34.153Z,91766.97
2023-03-27T00:31:01.015Z,91766.75
2023-03-27T00:33:27.761Z,91766.97
2023-03-27T00:35:54.616Z,91762.81
2023-03-27T00:38:21.435Z,91770.28
2023-03-27T00:40:50.749Z,91770.47
2023-03-27T00:43:26.237Z,91782.72
2023-03-27T00:46:01.388Z,91778.91
2023-03-27T00:48:30.467Z,91785.69
2023-03-27T00:50:58.350Z,91787.31
2023-03-27T00:53:27.521Z,91788.03
2023-03-27T00:55:58.945Z,91793.47
2023-03-27T00:58:32.045Z,91792.91
2023-03-27T01:00:59.475Z,91793.88
2023-03-27T01:03:30.618Z,91799.13
2023-03-27T01:06:00.421Z,91795.22
2023-03-27T01:08:30.084Z,91805.50
2023-03-27T01:11:15.341Z,91810.47
2023-03-27T01:13:56.523Z,91819.41
2023-03-27T01:16:51.509Z,91815.81
2023-03-27T01:19:56.908Z,91827.22
2023-03-27T01:22:43.956Z,91831.06
2023-03-27T01:25:35.732Z,91832.84
2023-03-27T01:28:02.765Z,91834.59
2023-03-27T01:30:38.558Z,91837.41
2023-03-27T01:33:40.574Z,91849.03
2023-03-27T01:36:13.301Z,91851.47
2023-03-27T01:38:54.429Z,91848.88
2023-03-27T01:41:25.954Z,91849.53
2023-03-27T01:44:12.549Z,91857.84
2023-03-27T01:46:52.403Z,91864.31
2023-03-27T01:49:27.002Z,91869.16
2023-03-27T01:52:03.762Z,91867.06
2023-03-27T01:54:37.711Z,91869.16
2023-03-27T01:57:24.786Z,91881.13
2023-03-27T01:59:57.468Z,91883.72
2023-03-27T02:02:53.131Z,91898.72
2023-03-27T02:05:46.110Z,91895.09
2023-03-27T02:08:29.748Z,91892.28
2023-03-27T02:11:05.742Z,91894.31
2023-03-27T02:13:40.807Z,91893.88
2023-03-27T02:16:10.807Z,91901.06
2023-03-27T02:18:41.696Z,91911.44
2023-03-27T02:21:08.934Z,91899.59
2023-03-27T02:23:38.248Z,91915.25
2023-03-27T02:26:04.870Z,91908.00
2023-03-27T02:28:47.049Z,91912.72
2023-03-27T02:31:39.956Z,91922.47
2023-03-27T02:34:21.952Z,91919.81
2023-03-27T02:37:03.867Z,91927.16
2023-03-27T02:40:01.196Z,91930.69
2023-03-27T02:42:39.739Z,91929.22
2023-03-27T02:45:35.715Z,91934.84
2023-03-27T02:48:40.278Z,91944.44
2023-03-27T02:51:48.492Z,91942.25
2023-03-27T02:54:22.883Z,91946.97
2023-03-27T02:56:54.849Z,91953.59
2023-03-27T02:59:35.617Z,91959.16
2023-03-27T03:02:07.784Z,91967.97
2023-03-27T03:04:48.783Z,91964.34
2023-03-27T03:07:27.503Z,91978.66
2023-03-27T03:09:54.576Z,91982.59
2023-03-27T03:12:21.565Z,91987.78
2023-03-27T03:14:48.486Z,91987.78
2023-03-27T03:17:16.341Z,92002.13
2023-03-27T03:19:44.846Z,91999.97
2023-03-27T03:22:11.520Z,92008.78
2023-03-27T03:24:42.221Z,92025.13
2023-03-27T03:27:10.763Z,92027.16
2023-03-27T03:29:49.409Z,92032.09
2023-03-27T03:32:21.150Z,92034.59
2023-03-27T03:34:50.933Z,92037.75
2023-03-27T03:37:17.505Z,92047.44
2023-03-27T03:39:44.081Z,92056.69
2023-03-27T03:42:10.676Z,92068.97
2023-03-27T03:44:51.134Z,92074.16
2023-03-27T03:47:21.209Z,92080.03
2023-03-27T03:49:48.397Z,92089.03
2023-03-27T03:52:14.993Z,92094.44
2023-03-27T03:54:41.824Z,92092.28
2023-03-27T03:57:08.840Z,92091.28
2023-03-27T03:59:35.787Z,92103.69
2023-03-27T04:02:29.021Z,92104.59
2023-03-27T04:05:10.361Z,92128.69
2023-03-27T04:07:39.994Z,92135.66
2023-03-27T04:10:30.345Z,92154.63
2023-03-27T04:12:59.453Z,92140.78
2023-03-27T04:15:29.246Z,92147.53
2023-03-27T04:18:19.627Z,92160.75
2023-03-27T04:20:50.514Z,92162.31
2023-03-27T04:23:19.353Z,92169.50
2023-03-27T04:25:47.115Z,92159.47
2023-03-27T04:28:18.480Z,92164.16
2023-03-27T04:30:50.486Z,92178.13
2023-03-27T04:33:46.220Z,92180.56
2023-03-27T04:36:42.493Z,92180.00
2023-03-27T04:39:11.584Z,92188.69
2023-03-27T04:41:38.684Z,92192.38
2023-03-27T04:44:06.482Z,92194.31
2023-03-27T04:46:33.928Z,92190.91
2023-03-27T04:49:06.491Z,92205.31
2023-03-27T04:51:46.837Z,92202.72
2023-03-27T04:54:13.769Z,92215.09
2023-03-27T04:56:46.516Z,92226.63
2023-03-27T04:59:13.486Z,92218.25
2023-03-27T05:01:40.391Z,92232.38
2023-03-27T05:04:17.831Z,92234.69
2023-03-27T05:07:12.150Z,92246.56
2023-03-27T05:09:38.723Z,92244.81
2023-03-27T05:12:07.622Z,92254.59
2023-03-27T05:14:40.605Z,92263.22
2023-03-27T05:17:16.488Z,92273.50
2023-03-27T05:19:45.224Z,92278.81
2023-03-27T05:22:13.851Z,92285.25
2023-03-27T05:24:49.302Z,92293.97
2023-03-27T05:27:15.879Z,92292.44
2023-03-27T05:29:47.699Z,92308.81
2023-03-27T05:32:16.187Z,92295.94
2023-03-27T05:34:54.544Z,92320.28
2023-03-27T05:37:24.137Z,92304.56
2023-03-27T05:40:13.687Z,92312.47
2023-03-27T05:42:43.123Z,92312.59
2023-03-27T05:45:10.100Z,92320.97
2023-03-27T05:48:00.939Z,92321.22
2023-03-27T05:50:33.499Z,92326.59
2023-03-27T05:53:11.052Z,92340.59
2023-03-27T05:55:43.528Z,92349.38
2023-03-27T05:58:11.743Z,92353.91
2023-03-27T06:00:42.101Z,92356.03
2023-03-27T06:03:12.888Z,92356.41
2023-03-27T06:06:07.055Z,92355.69
2023-03-27T06:08:36.502Z,92354.69
2023-03-27T06:11:10.957Z,92364.69
2023-03-27T06:13:47.729Z,92374.41
2023-03-27T06:16:20.894Z,92384.22
2023-03-27T06:19:19.461Z,92388.19
2023-03-27T06:21:51.422Z,92395.72
2023-03-27T06:24:17.888Z,92401.56
2023-03-27T06:26:44.816Z,92414.72
2023-03-27T06:29:11.838Z,92416.38
2023-03-27T06:31:45.343Z,92423.53
2023-03-27T06:34:32.045Z,92441.22
2023-03-27T06:37:04.401Z,92441.63
2023-03-27T06:39:37.330Z,92450.41
2023-03-27T06:42:03.822Z,92459.22
2023-03-27T06:44:53.463Z,92464.56
2023-03-27T06:47:48.111Z,92463.97
2023-03-27T06:50:38.709Z,92484.25
2023-03-27T06:53:09.974Z,92487.81
2023-03-27T06:55:45.819Z,92493.78
2023-03-27T06:58:16.673Z,92505.84
2023-03-27T07:00:43.669Z,92512.44
2023-03-27T07:03:21.406Z,92519.19
2023-03-27T07:06:01.095Z,92531.91
2023-03-27T07:08:33.894Z,92542.28
2023-03-27T07:13:33.959Z,92539.06
2023-03-27T07:16:04.480Z,92556.75
2023-03-27T07:18:33.075Z,92553.78
2023-03-27T07:23:27.332Z,92559.94
2023-03-27T07:26:01.260Z,92569.84
2023-03-27T07:28:49.669Z,92560.47
2023-03-27T07:31:31.640Z,92555.34
2023-03-27T07:34:28.095Z,92558.69
2023-03-27T07:37:12.180Z,92565.28
2023-03-27T07:39:48.814Z,92574.38
2023-03-27T07:42:15.836Z,92585.94
2023-03-27T07:45:03.959Z,92600.22
2023-03-27T07:47:31.356Z,92601.38
2023-03-27T07:49:58.701Z,92607.75
2023-03-27T07:52:25.801Z,92609.72
2023-03-27T07:54:56.983Z,92607.34
2023-03-27T07:57:28.557Z,92610.69
2023-03-27T08:00:02.869Z,92612.06
2023-03-27T08:02:43.658Z,92616.69
2023-03-27T08:05:11.264Z,92610.78
2023-03-27T08:07:40.737Z,92623.53
2023-03-27T08:10:09.687Z,92621.69
2023-03-27T08:12:50.358Z,92629.91
2023-03-27T08:15:17.387Z,92633.09
2023-03-27T08:17:45.110Z,92649.03
2023-03-27T08:20:15.435Z,92650.28
2023-03-27T08:22:47.086Z,92651.69
2023-03-27T08:25:36.788Z,92652.75
2023-03-27T08:28:07.309Z,92655.66
2023-03-27T08:30:35.272Z,92656.84
2023-03-27T08:33:02.546Z,92673.88
2023-03-27T08:35:29.665Z,92683.78
2023-03-27T08:37:57.347Z,92689.50
2023-03-27T08:40:54.392Z,92701.94
2023-03-27T08:43:30.744Z,92698.56
2023-03-27T08:46:07.576Z,92709.66
2023-03-27T08:48:53.703Z,92718.22
2023-03-27T08:51:47.221Z,92714.53
2023-03-27T08:54:22.272Z,92723.97
2023-03-27T08:56:50.581Z,92729.34
2023-03-27T08:59:27.715Z,92735.53
2023-03-27T09:02:03.217Z,92732.66
2023-03-27T09:04:59.386Z,92725.63
2023-03-27T09:07:34.321Z,92737.38
2023-03-27T09:10:22.922Z,92739.78
2023-03-27T09:13:04.759Z,92751.31
2023-03-27T09:15:41.669Z,92746.50
2023-03-27T09:18:18.200Z,92747.63
2023-03-27T09:21:01.429Z,92763.03
2023-03-27T09:23:34.625Z,92772.28
2023-03-27T09:26:37.343Z,92771.72
2023-03-27T09:29:14.262Z,92771.91
2023-03-27T09:31:52.070Z,92776.78
2023-03-27T09:34:33.420Z,92778.91
2023-03-27T09:37:00.800Z,92783.28
2023-03-27T09:39:33.906Z,92789.56
2023-03-27T09:42:28.906Z,92783.47
2023-03-27T09:45:00.842Z,92780.78
2023-03-27T09:47:38.166Z,92790.38
2023-03-27T09:50:30.167Z,92801.81
2023-03-27T09:53:18.973Z,92799.22
2023-03-27T09:56:03.570Z,92805.53
2023-03-27T09:58:41.013Z,92795.56
2023-03-27T10:01:30.333Z,92802.09
2023-03-27T10:04:14.710Z,92809.97
2023-03-27T10:06:51.440Z,92807.38
2023-03-27T10:09:35.952Z,92815.69
2023-03-27T10:12:07.309Z,92820.59
2023-03-27T10:14:43.883Z,92822.25
2023-03-27T10:17:26.356Z,92819.00
2023-03-27T10:20:19.591Z,92826.19
2023-03-27T10:23:00.825Z,92830.34
2023-03-27T10:25:34.368Z,92832.44
2023-03-27T10:28:27.149Z,92836.19
2023-03-27T10:31:34.907Z,92846.19
2023-03-27T10:34:30.855Z,92835.28
2023-03-27T10:37:28.083Z,92833.91
2023-03-27T10:40:18.291Z,92834.38
2023-03-27T10:42:48.618Z,92839.59
2023-03-27T10:45:18.184Z,92844.25
2023-03-27T10:47:49.612Z,92849.59
2023-03-27T10:50:30.340Z,92849.81
2023-03-27T10:53:07.366Z,92852.56
2023-03-27T10:56:05.811Z,92869.88
2023-03-27T10:58:43.718Z,92864.84
2023-03-27T11:01:46.874Z,92875.00
2023-03-27T11:04:27.245Z,92886.13
2023-03-27T11:07:04.057Z,92873.41
2023-03-27T11:09:37.014Z,92884.31
2023-03-27T11:12:16.389Z,92886.72
2023-03-27T11:15:07.384Z,92897.03
2023-03-27T11:18:10.682Z,92901.97
2023-03-27T11:20:52.625Z,92901.75
2023-03-27T11:23:44.675Z,92902.16
2023-03-27T11:26:37.384Z,92895.16
2023-03-27T11:29:22.961Z,92892.19
2023-03-27T11:31:57.183Z,92889.28
2023-03-27T11:34:46.501Z,92892.72
2023-03-27T11:37:45.564Z,92891.22
2023-03-27T11:40:17.995Z,92902.31
2023-03-27T11:42:45.289Z,92905.31
2023-03-27T11:45:15.043Z,92915.25
2023-03-27T11:48:11.091Z,92912.44
2023-03-27T11:51:04.057Z,92912.38
2023-03-27T11:53:41.986Z,92907.53
2023-03-27T11:56:35.206Z,92925.91
2023-03-27T11:59:20.170Z,92912.16
2023-03-27T12:02:27.683Z,92924.22
2023-03-27T12:05:04.338Z,92916.69
2023-03-27T12:07:47.880Z,92921.84
2023-03-27T12:10:33.088Z,92921.25
2023-03-27T12:13:08.083Z,92924.13
2023-03-27T12:16:12.134Z,92915.91
2023-03-27T12:19:28.510Z,92917.88
2023-03-27T12:22:30.085Z,92920.25
2023-03-27T12:25:18.232Z,92929.56
2023-03-27T12:28:43.017Z,92941.22
2023-03-27T12:31:42.711Z,92946.50
2023-03-27T12:34:37.426Z,92946.00
2023-03-27T12:37:05.895Z,92941.63
2023-03-27T12:39:45.058Z,92943.59
2023-03-27T12:42:44.120Z,92935.13
2023-03-27T12:45:26.906Z,92940.78
2023-03-27T12:48:07.696Z,92947.22
2023-03-27T12:50:46.786Z,92948.44
2023-03-27T12:53:25.551Z,92949.84
2023-03-27T12:56:16.342Z,92952.44
2023-03-27T12:58:46.606Z,92951.13
2023-03-27T13:01:45.504Z,92937.59
2023-03-27T13:04:27.803Z,92948.50
2023-03-27T13:07:12.055Z,92955.59
2023-03-27T13:10:26.598Z,92949.38
2023-03-27T13:12:59.433Z,92947.78
2023-03-27T13:15:44.364Z,92948.78
2023-03-27T13:18:41.863Z,92953.28
2023-03-27T13:21:16.401Z,92955.28
2023-03-27T13:23:47.300Z,92962.19
2023-03-27T13:26:56.553Z,92967.66
2023-03-27T13:29:30.071Z,92965.94
2023-03-27T13:32:26.082Z,92967.16
2023-03-27T13:35:19.250Z,92960.41
2023-03-27T13:37:53.844Z,92966.50
2023-03-27T13:40:33.303Z,92966.38
2023-03-27T13:43:21.721Z,92962.59
2023-03-27T13:46:01.373Z,92953.44
2023-03-27T13:49:07.405Z,92958.06
2023-03-27T13:52:20.857Z,92965.38
2023-03-27T13:54:54.387Z,92975.75
2023-03-27T13:57:38.991Z,92981.66
2023-03-27T14:00:47.698Z,92980.75
2023-03-27T14:03:36.868Z,92979.44
2023-03-27T14:06:26.027Z,92979.06
2023-03-27T14:09:08.095Z,92969.81
2023-03-27T14:12:16.534Z,92968.47
2023-03-27T14:15:30.395Z,92965.81
2023-03-27T14:18:34.017Z,92967.25
2023-03-27T14:21:06.066Z,92966.63
2023-03-27T14:24:08.622Z,92978.03
2023-03-27T14:26:45.856Z,92976.84
2023-03-27T14:29:17.724Z,92976.66
2023-03-27T14:31:51.193Z,92985.69
2023-03-27T14:34:33.308Z,92981.56
2023-03-27T14:37:29.383Z,92992.34
2023-03-27T14:40:01.063Z,92991.75
2023-03-27T14:42:47.066Z,92996.97
2023-03-27T14:45:23.889Z,93003.81
2023-03-27T14:48:00.049Z,93013.66
2023-03-27T14:50:34.461Z,93011.78
2023-03-27T14:53:08.900Z,93027.09
2023-03-27T14:56:11.490Z,93025.31
2023-03-27T14:59:13.186Z,93032.72
2023-03-27T15:01:50.930Z,93036.44
2023-03-27T15:04:18.654Z,93027.97
2023-03-27T15:06:49.768Z,93021.44
2023-03-27T15:09:37.338Z,93019.00
2023-03-27T15:12:17.909Z,93011.97
2023-03-27T15:14:45.899Z,93009.44
2023-03-27T15:17:17.810Z,93004.19
2023-03-27T15:19:53.765Z,92996.44
2023-03-27T15:22:27.364Z,93000.69
2023-03-27T15:25:22.159Z,92999.19
2023-03-27T15:27:55.173Z,93000.16
2023-03-27T15:30:40.510Z,92998.88
2023-03-27T15:33:15.752Z,93002.06
2023-03-27T15:35:45.788Z,92992.81
2023-03-27T15:38:15.754Z,93001.91
2023-03-27T15:40:43.979Z,93002.44
2023-03-27T15:43:13.290Z,93005.97
2023-03-27T15:46:02.384Z,93002.47
2023-03-27T15:48:40.642Z,93018.56
2023-03-27T15:51:11.328Z,93022.06
2023-03-27T15:53:39.601Z,93037.66
2023-03-27T15:56:42.444Z,93047.56
2023-03-27T15:59:14.926Z,93045.81
2023-03-27T16:01:53.164Z,93048.88
2023-03-27T16:04:23.898Z,93048.53
2023-03-27T16:06:54.609Z,93057.03
2023-03-27T16:09:27.194Z,93065.03
2023-03-27T16:11:55.788Z,93062.47
2023-03-27T16:14:34.964Z,93065.97
2023-03-27T16:17:20.726Z,93068.53
2023-03-27T16:20:07.475Z,93077.91
2023-03-27T16:22:37.209Z,93064.09
2023-03-27T16:25:13.020Z,93069.47
2023-03-27T16:27:46.640Z,93062.22
2023-03-27T16:30:36.286Z,93066.91
2023-03-27T16:33:03.690Z,93065.69
2023-03-27T16:35:34.138Z,93069.03
2023-03-27T16:38:01.119Z,93062.50
2023-03-27T16:40:28.246Z,93072.22
2023-03-27T16:42:54.907Z,93071.09
2023-03-27T16:45:21.832Z,93068.66
2023-03-27T16:47:52.874Z,93070.28
2023-03-27T16:50:23.476Z,93065.25
2023-03-27T16:52:50.451Z,93084.09
2023-03-27T16:55:17.145Z,93079.38
2023-03-27T16:57:43.721Z,93082.25
2023-03-27T17:00:11.660Z,93083.94
2023-03-27T17:02:38.436Z,93091.34
2023-03-27T17:05:08.047Z,93091.53
2023-03-27T17:07:34.822Z,93097.53
2023-03-27T17:10:02.028Z,93102.38
2023-03-27T17:12:32.202Z,93099.53
2023-03-27T17:14:58.768Z,93109.75
2023-03-27T17:17:27.399Z,93121.53
2023-03-27T17:19:54.199Z,93117.34
2023-03-27T17:22:21.416Z,93123.13
2023-03-27T17:24:56.112Z,93127.50
2023-03-27T17:27:25.784Z,93134.66
2023-03-27T17:29:55.724Z,93130.88
2023-03-27T17:32:22.558Z,93132.69
2023-03-27T17:34:50.857Z,93134.69
2023-03-27T17:37:18.376Z,93134.66
2023-03-27T17:39:44.906Z,93143.81
2023-03-27T17:42:11.412Z,93139.81
2023-03-27T17:44:38.151Z,93156.50
2023-03-27T17:47:04.903Z,93158.91
2023-03-27T17:49:31.843Z,93156.84
2023-03-27T17:51:58.348Z,93163.22
2023-03-27T17:54:24.867Z,93166.16
2023-03-27T17:56:51.606Z,93166.16
2023-03-27T17:59:18.149Z,93168.53
2023-03-27T18:01:45.724Z,93167.09
2023-03-27T18:04:12.296Z,93168.88
2023-03-27T18:06:38.852Z,93171.13
2023-03-27T18:09:07.405Z,93172.72
2023-03-27T18:11:33.933Z,93172.72
2023-03-27T18:14:00.931Z,93179.47
2023-03-27T18:16:27.488Z,93188.38
2023-03-27T18:18:55.525Z,93185.19
2023-03-27T18:21:22.100Z,93181.41
2023-03-27T18:23:48.617Z,93186.16
2023-03-27T18:26:16.537Z,93189.34
2023-03-27T18:28:43.474Z,93197.09
2023-03-27T18:31:15.724Z,93200.06
2023-03-27T18:33:42.225Z,93206.66
2023-03-27T18:36:10.738Z,93208.81
2023-03-27T18:38:42.091Z,93212.56
2023-03-27T18:41:09.722Z,93215.16
2023-03-27T18:43:36.545Z,93218.47
2023-03-27T18:46:06.066Z,93219.88
2023-03-27T18:48:33.579Z,93225.19
2023-03-27T18:51:02.886Z,93223.84
2023-03-27T18:53:30.107Z,93217.06
2023-03-27T18:55:58.417Z,93229.75
2023-03-27T18:58:29.250Z,93230.00
2023-03-27T19:00:56.826Z,93234.53
2023-03-27T19:03:26.198Z,93227.16
2023-03-27T19:05:53.164Z,93227.53
2023-03-27T19:08:21.356Z,93233.69
2023-03-27T19:10:47.937Z,93234.47
2023-03-27T19:13:20.419Z,93226.44
2023-03-27T19:15:49.514Z,93224.84
2023-03-27T19:18:39.197Z,93217.09
2023-03-27T19:21:35.051Z,93231.28
2023-03-27T19:24:03.429Z,93221.72
2023-03-27T19:26:37.444Z,93229.28
2023-03-27T19:29:04.250Z,93225.09
2023-03-27T19:31:30.822Z,93219.69
2023-03-27T19:33:58.241Z,93219.88
2023-03-27T19:36:24.948Z,93225.66
2023-03-27T19:38:51.628Z,93224.06
2023-03-27T19:41:18.106Z,93225.06
2023-03-27T19:43:44.586Z,93228.81
2023-03-27T19:48:41.012Z,93225.81
2023-03-27T19:51:14.569Z,93227.59
2023-03-27T19:53:43.776Z,93223.97
2023-03-27T19:56:10.687Z,93226.75
2023-03-27T19:58:37.181Z,93229.94
2023-03-27T20:01:04.591Z,93236.81
2023-03-27T20:03:31.266Z,93242.56
2023-03-27T20:06:07.525Z,93234.81
2023-03-27T20:08:38.231Z,93227.78
2023-03-27T20:11:06.856Z,93240.16
2023-03-27T20:13:42.446Z,93241.88
2023-03-27T20:16:16.380Z,93240.63
2023-03-27T20:18:46.162Z,93252.78
2023-03-27T20:21:13.757Z,93255.72
2023-03-27T20:23:41.827Z,93259.28
2023-03-27T20:26:13.929Z,93256.13
2023-03-27T20:28:45.398Z,93253.16
2023-03-27T20:31:11.898Z,93263.47
2023-03-27T20:33:38.464Z,93263.88
2023-03-27T20:36:05.295Z,93260.31
2023-03-27T20:38:32.783Z,93261.50
2023-03-27T20:41:03.602Z,93267.81
2023-03-27T20:43:34.843Z,93267.22
2023-03-27T20:46:01.845Z,93265.63
2023-03-27T20:48:39.971Z,93267.41
2023-03-27T20:51:14.570Z,93265.75
2023-03-27T20:53:58.079Z,93274.09
2023-03-27T20:56:25.151Z,93280.50
2023-03-27T20:58:51.679Z,93275.16
2023-03-27T21:01:19.505Z,93278.97
2023-03-27T21:03:49.403Z,93283.69
2023-03-27T21:06:20.490Z,93282.91
2023-03-27T21:08:47.570Z,93287.63
2023-03-27T21:11:14.511Z,93288.25
2023-03-27T21:13:41.202Z,93285.44
2023-03-27T21:16:08.404Z,93295.75
2023-03-27T21:18:35.005Z,93295.63
2023-03-27T21:21:01.489Z,93295.25
2023-03-27T21:23:27.987Z,93296.84
2023-03-27T21:25:55.282Z,93289.72
2023-03-27T21:28:21.769Z,93292.69
2023-03-27T21:30:48.668Z,93290.47
2023-03-27T21:33:16.476Z,93288.06
2023-03-27T21:35:46.162Z,93286.91
2023-03-27T21:38:14.431Z,93285.28
2023-03-27T21:40:41.648Z,93292.06
2023-03-27T21:43:09.133Z,93296.44
2023-03-27T21:45:36.488Z,93291.06
2023-03-27T21:48:03.347Z,93303.28
2023-03-27T21:50:30.272Z,93292.56
2023-03-27T21:52:57.352Z,93295.41
2023-03-27T21:55:23.907Z,93298.84
2023-03-27T21:57:51.797Z,93299.03
2023-03-27T22:00:18.700Z,93296.25
2023-03-27T22:02:45.301Z,93298.91
2023-03-27T22:05:11.824Z,93301.94
2023-03-27T22:07:38.428Z,93308.25
2023-03-27T22:10:06.437Z,93315.59
2023-03-27T22:12:36.965Z,93307.78
2023-03-27T22:15:04.383Z,93310.53
2023-03-27T22:17:30.894Z,93311.28
2023-03-27T22:19:58.173Z,93314.47
2023-03-27T22:22:25.066Z,93310.59
2023-03-27T22:24:51.577Z,93324.25
2023-03-27T22:27:18.043Z,93327.78
2023-03-27T22:29:44.511Z,93332.09
2023-03-27T22:32:11.011Z,93330.03
2023-03-27T22:34:37.539Z,93340.56
2023-03-27T22:37:04.083Z,93340.81
2023-03-27T22:39:30.668Z,93342.59
2023-03-27T22:41:57.184Z,93348.56
2023-03-27T22:44:23.813Z,93357.19
2023-03-27T22:46:52.503Z,93360.03
2023-03-27T22:49:19.172Z,93354.41
2023-03-27T22:51:45.724Z,93355.25
2023-03-27T22:54:12.270Z,93359.84
2023-03-27T22:56:38.883Z,93358.78
2023-03-27T22:59:06.125Z,93362.78
2023-03-27T23:01:32.779Z,93376.69
2023-03-27T23:03:59.441Z,93366.00
2023-03-27T23:06:26.265Z,93373.97
2023-03-27T23:08:52.942Z,93381.94
2023-03-27T23:11:20.281Z,93382.56
2023-03-27T23:13:47.113Z,93385.22
2023-03-27T23:16:13.677Z,93388.59
2023-03-27T23:18:40.268Z,93395.19
2023-03-27T23:21:09.615Z,93396.78
2023-03-27T23:23:37.914Z,93389.16
2023-03-27T23:26:06.099Z,93389.75
2023-03-27T23:28:36.909Z,93391.13
2023-03-27T23:31:06.264Z,93396.28
2023-03-27T23:33:36.397Z,93396.28
2023-03-27T23:36:14.579Z,93401.44
2023-03-27T23:38:42.065Z,93409.44
2023-03-27T23:41:10.532Z,93405.50
2023-03-27T23:43:37.767Z,93403.38
2023-03-27T23:46:08.374Z,93407.38
2023-03-27T23:48:35.262Z,93412.81
2023-03-27T23:51:02.108Z,93415.19
2023-03-27T23:53:29.230Z,93413.34
2023-03-27T23:55:57.972Z,93416.72
2023-03-27T23:58:32.111Z,93414.50
